createdAt,value
2022-12-03T00:00:40.194Z,18.92
2022-12-03T00:03:06.960Z,20.38
2022-12-03T00:05:33.621Z,18.17
2022-12-03T00:08:00.312Z,17.77
2022-12-03T00:10:27.031Z,21.30
2022-12-03T00:12:53.599Z,20.33
2022-12-03T00:15:20.227Z,17.17
2022-12-03T00:17:46.829Z,17.58
2022-12-03T00:20:24.222Z,19.38
2022-12-03T00:22:50.815Z,20.38
2022-12-03T00:25:17.817Z,18.15
2022-12-03T00:27:44.455Z,17.20
2022-12-03T00:30:12.230Z,17.75
2022-12-03T00:32:38.808Z,20.08
2022-12-03T00:35:05.650Z,19.85
2022-12-03T00:37:32.323Z,21.73
2022-12-03T00:39:58.857Z,20.30
2022-12-03T00:42:25.414Z,19.55
2022-12-03T00:44:52.145Z,19.42
2022-12-03T00:47:18.945Z,18.25
2022-12-03T00:49:45.518Z,19.48
2022-12-03T00:52:12.128Z,17.85
2022-12-03T00:54:38.703Z,20.83
2022-12-03T00:57:05.332Z,17.88
2022-12-03T00:59:31.902Z,19.27
2022-12-03T01:01:58.502Z,18.20
2022-12-03T01:04:25.220Z,17.05
2022-12-03T01:06:51.918Z,16.85
2022-12-03T01:09:18.581Z,19.02
2022-12-03T01:11:45.151Z,18.17
2022-12-03T01:14:16.979Z,18.58
2022-12-03T01:16:44.215Z,18.20
2022-12-03T01:19:11.313Z,17.88
2022-12-03T01:21:38.002Z,20.30
2022-12-03T01:24:05.311Z,21.33
2022-12-03T01:26:31.864Z,19.92
2022-12-03T01:28:58.429Z,19.00
2022-12-03T01:31:43.372Z,18.83
2022-12-03T01:34:09.906Z,17.55
2022-12-03T01:36:36.475Z,19.45
2022-12-03T01:39:04.485Z,20.20
2022-12-03T01:41:32.214Z,19.02
2022-12-03T01:44:00.025Z,18.88
2022-12-03T01:46:39.632Z,18.92
2022-12-03T01:49:09.467Z,17.45
2022-12-03T01:51:36.095Z,19.27
2022-12-03T01:54:03.442Z,19.60
2022-12-03T01:56:29.994Z,19.00
2022-12-03T01:58:56.582Z,17.63
2022-12-03T02:01:23.200Z,17.65
2022-12-03T02:03:49.871Z,18.17
2022-12-03T02:06:19.289Z,18.27
2022-12-03T02:08:47.304Z,20.08
2022-12-03T02:11:16.739Z,19.33
2022-12-03T02:13:44.228Z,18.73
2022-12-03T02:16:11.034Z,19.80
2022-12-03T02:18:37.682Z,19.38
2022-12-03T02:21:04.235Z,18.13
2022-12-03T02:23:54.144Z,17.73
2022-12-03T02:26:21.169Z,17.92
2022-12-03T02:28:47.760Z,18.55
2022-12-03T02:31:14.364Z,17.40
2022-12-03T02:33:41.014Z,19.40
2022-12-03T02:36:08.128Z,21.30
2022-12-03T02:38:35.860Z,17.48
2022-12-03T02:41:09.411Z,19.05
2022-12-03T02:43:36.789Z,18.15
2022-12-03T02:46:04.520Z,14.85
2022-12-03T02:48:37.129Z,17.30
2022-12-03T02:51:09.178Z,18.73
2022-12-03T02:53:44.359Z,16.80
2022-12-03T02:56:14.222Z,22.55
2022-12-03T02:58:41.828Z,17.85
2022-12-03T03:01:09.594Z,16.90
2022-12-03T03:03:52.711Z,17.23
2022-12-03T03:06:19.996Z,17.83
2022-12-03T03:08:46.655Z,20.27
2022-12-03T03:11:13.318Z,19.85
2022-12-03T03:13:40.118Z,17.05
2022-12-03T03:16:08.074Z,17.98
2022-12-03T03:18:35.128Z,19.42
2022-12-03T03:21:03.034Z,16.88
2022-12-03T03:23:29.602Z,17.15
2022-12-03T03:26:11.825Z,20.75
2022-12-03T03:28:41.946Z,20.25
2022-12-03T03:31:11.267Z,21.70
2022-12-03T03:33:39.614Z,13.18
2022-12-03T03:36:07.262Z,16.35
2022-12-03T03:38:34.634Z,17.77
2022-12-03T03:41:03.230Z,19.42
2022-12-03T03:43:31.048Z,19.27
2022-12-03T03:45:57.691Z,19.42
2022-12-03T03:48:24.471Z,17.98
2022-12-03T03:50:51.971Z,18.20
2022-12-03T03:53:20.100Z,16.95
2022-12-03T03:55:46.987Z,15.95
2022-12-03T03:58:13.877Z,17.45
2022-12-03T04:00:43.987Z,15.27
2022-12-03T04:03:11.242Z,17.23
2022-12-03T04:05:38.041Z,17.45
2022-12-03T04:08:04.960Z,17.67
2022-12-03T04:10:49.813Z,14.90
2022-12-03T04:13:16.360Z,16.00
2022-12-03T04:15:42.894Z,16.92
2022-12-03T04:18:28.026Z,14.88
2022-12-03T04:21:17.165Z,19.20
2022-12-03T04:23:43.724Z,16.92
2022-12-03T04:26:28.835Z,15.50
2022-12-03T04:28:55.868Z,16.25
2022-12-03T04:31:40.844Z,15.65
2022-12-03T04:34:27.235Z,16.50
2022-12-03T04:36:53.817Z,16.33
2022-12-03T04:39:21.163Z,16.70
2022-12-03T04:41:47.853Z,16.77
2022-12-03T04:44:32.803Z,16.33
2022-12-03T04:47:06.915Z,15.85
2022-12-03T04:49:34.346Z,16.38
2022-12-03T04:52:00.960Z,14.95
2022-12-03T04:54:28.254Z,14.73
2022-12-03T04:56:54.874Z,15.63
2022-12-03T04:59:21.620Z,16.40
2022-12-03T05:01:48.293Z,16.52
2022-12-03T05:04:15.414Z,10.15
2022-12-03T05:06:42.176Z,15.32
2022-12-03T05:09:09.252Z,13.90
2022-12-03T05:11:35.819Z,16.10
2022-12-03T05:14:02.463Z,15.30
2022-12-03T05:16:29.192Z,16.05
2022-12-03T05:18:55.813Z,17.17
2022-12-03T05:21:22.479Z,15.02
2022-12-03T05:23:49.017Z,15.27
2022-12-03T05:26:15.792Z,16.13
2022-12-03T05:28:42.295Z,15.98
2022-12-03T05:31:09.115Z,15.60
2022-12-03T05:33:40.883Z,16.67
2022-12-03T05:36:10.408Z,15.52
2022-12-03T05:38:36.959Z,15.55
2022-12-03T05:41:23.531Z,16.60
2022-12-03T05:43:50.071Z,14.82
2022-12-03T05:46:16.708Z,15.73
2022-12-03T05:48:43.311Z,13.90
2022-12-03T05:51:09.781Z,15.95
2022-12-03T05:53:36.322Z,15.93
2022-12-03T05:56:02.824Z,16.48
2022-12-03T05:58:29.350Z,16.38
2022-12-03T06:00:55.855Z,13.50
2022-12-03T06:03:22.491Z,17.42
2022-12-03T06:05:49.107Z,16.20
2022-12-03T06:08:15.678Z,16.00
2022-12-03T06:10:42.277Z,16.35
2022-12-03T06:13:08.938Z,16.20
2022-12-03T06:15:41.980Z,14.65
2022-12-03T06:18:10.173Z,14.00
2022-12-03T06:20:36.684Z,15.50
2022-12-03T06:23:03.351Z,15.13
2022-12-03T06:25:29.906Z,16.80
2022-12-03T06:27:56.456Z,16.70
2022-12-03T06:30:22.991Z,13.80
2022-12-03T06:32:49.581Z,15.00
2022-12-03T06:35:16.120Z,16.60
2022-12-03T06:37:42.605Z,17.20
2022-12-03T06:40:09.604Z,17.23
2022-12-03T06:42:36.167Z,15.45
2022-12-03T06:45:03.443Z,17.63
2022-12-03T06:47:29.933Z,15.73
2022-12-03T06:49:56.469Z,15.57
2022-12-03T06:52:23.041Z,16.73
2022-12-03T06:54:49.557Z,16.67
2022-12-03T06:57:16.376Z,16.38
2022-12-03T06:59:42.918Z,15.27
2022-12-03T07:02:11.254Z,16.17
2022-12-03T07:04:42.018Z,15.93
2022-12-03T07:07:11.445Z,14.48
2022-12-03T07:09:37.965Z,13.13
2022-12-03T07:12:04.710Z,16.30
2022-12-03T07:14:31.307Z,16.23
2022-12-03T07:16:57.833Z,16.38
2022-12-03T07:19:30.667Z,13.95
2022-12-03T07:21:58.989Z,15.20
2022-12-03T07:24:25.603Z,16.30
2022-12-03T07:26:52.211Z,15.02
2022-12-03T07:29:18.740Z,12.73
2022-12-03T07:31:45.312Z,14.52
2022-12-03T07:34:12.020Z,15.65
2022-12-03T07:36:38.607Z,15.63
2022-12-03T07:39:05.412Z,15.40
2022-12-03T07:41:32.102Z,14.52
2022-12-03T07:43:58.638Z,14.73
2022-12-03T07:46:25.234Z,14.27
2022-12-03T07:48:51.776Z,15.38
2022-12-03T07:51:18.314Z,15.50
2022-12-03T07:53:44.856Z,15.00
2022-12-03T07:56:11.421Z,15.40
2022-12-03T07:58:37.930Z,16.13
2022-12-03T08:01:04.637Z,15.27
2022-12-03T08:03:31.238Z,14.85
2022-12-03T08:05:57.804Z,14.73
2022-12-03T08:08:24.481Z,14.60
2022-12-03T08:10:50.968Z,16.60
2022-12-03T08:13:18.983Z,15.65
2022-12-03T08:15:46.025Z,14.55
2022-12-03T08:18:22.434Z,14.02
2022-12-03T08:20:51.939Z,16.30
2022-12-03T08:23:19.859Z,15.77
2022-12-03T08:25:48.746Z,15.20
2022-12-03T08:28:17.097Z,14.85
2022-12-03T08:30:45.174Z,13.73
2022-12-03T08:33:20.366Z,14.93
2022-12-03T08:35:51.000Z,16.98
2022-12-03T08:38:22.224Z,16.13
2022-12-03T08:40:51.466Z,14.93
2022-12-03T08:43:29.302Z,14.70
2022-12-03T08:45:57.435Z,14.98
2022-12-03T08:48:36.775Z,15.45
2022-12-03T08:51:11.254Z,15.10
2022-12-03T08:54:12.760Z,15.30
2022-12-03T08:56:39.526Z,15.02
2022-12-03T08:59:25.404Z,15.63
2022-12-03T09:01:53.778Z,15.80
2022-12-03T09:04:29.189Z,15.68
2022-12-03T09:06:56.298Z,16.80
2022-12-03T09:09:23.960Z,15.25
2022-12-03T09:11:51.108Z,16.85
2022-12-03T09:14:21.099Z,18.85
2022-12-03T09:16:48.380Z,15.55
2022-12-03T09:19:15.501Z,16.27
2022-12-03T09:21:42.076Z,15.68
2022-12-03T09:24:08.777Z,16.15
2022-12-03T09:26:35.447Z,16.73
2022-12-03T09:29:05.327Z,14.52
2022-12-03T09:31:35.733Z,16.35
2022-12-03T09:34:03.562Z,18.60
2022-12-03T09:36:30.160Z,15.85
2022-12-03T09:38:57.198Z,15.27
2022-12-03T09:41:25.121Z,17.40
2022-12-03T09:44:15.522Z,17.40
2022-12-03T09:46:40.810Z,14.50
2022-12-03T09:49:15.779Z,17.55
2022-12-03T09:51:49.511Z,17.25
2022-12-03T09:54:26.343Z,15.68
2022-12-03T09:56:54.918Z,16.48
2022-12-03T09:59:26.061Z,17.38
2022-12-03T10:01:54.425Z,17.00
2022-12-03T10:04:21.621Z,19.17
2022-12-03T10:06:48.422Z,16.92
2022-12-03T10:09:22.473Z,17.98
2022-12-03T10:11:49.410Z,15.85
2022-12-03T10:14:18.614Z,17.17
2022-12-03T10:16:46.090Z,16.23
2022-12-03T10:19:29.315Z,17.00
2022-12-03T10:21:56.010Z,17.45
2022-12-03T10:24:34.183Z,16.48
2022-12-03T10:27:03.271Z,17.48
2022-12-03T10:29:34.404Z,16.70
2022-12-03T10:32:07.807Z,16.85
2022-12-03T10:34:37.538Z,16.70
2022-12-03T10:39:58.544Z,17.75
2022-12-03T10:42:32.198Z,16.95
2022-12-03T10:45:19.731Z,16.92
2022-12-03T10:48:02.300Z,17.50
2022-12-03T10:50:29.186Z,15.75
2022-12-03T10:52:56.003Z,16.13
2022-12-03T10:55:22.723Z,16.85
2022-12-03T10:57:49.502Z,17.88
2022-12-03T11:00:19.829Z,18.17
2022-12-03T11:02:56.074Z,18.95
2022-12-03T11:05:29.235Z,18.25
2022-12-03T11:07:56.851Z,18.50
2022-12-03T11:10:23.862Z,17.55
2022-12-03T11:13:27.636Z,18.52
2022-12-03T11:15:54.651Z,17.83
2022-12-03T11:18:50.664Z,16.70
2022-12-03T11:21:17.257Z,17.98
2022-12-03T11:23:47.009Z,17.75
2022-12-03T11:26:19.759Z,17.38
2022-12-03T11:28:46.594Z,18.80
2022-12-03T11:31:42.889Z,17.38
2022-12-03T11:34:18.684Z,15.98
2022-12-03T11:37:10.338Z,17.40
2022-12-03T11:39:52.959Z,17.58
2022-12-03T11:42:25.705Z,17.42
2022-12-03T11:45:04.647Z,17.75
2022-12-03T11:47:31.304Z,17.77
2022-12-03T11:49:58.170Z,18.67
2022-12-03T11:52:39.993Z,17.20
2022-12-03T11:55:30.339Z,17.85
2022-12-03T11:58:00.816Z,19.00
2022-12-03T12:00:27.760Z,18.15
2022-12-03T12:02:56.182Z,18.15
2022-12-03T12:05:32.689Z,18.48
2022-12-03T12:08:01.671Z,17.77
2022-12-03T12:10:47.587Z,18.17
2022-12-03T12:13:30.472Z,18.80
2022-12-03T12:16:07.531Z,18.92
2022-12-03T12:18:53.683Z,19.23
2022-12-03T12:21:42.127Z,17.60
2022-12-03T12:24:30.914Z,16.90
2022-12-03T12:27:04.466Z,18.17
2022-12-03T12:29:31.468Z,15.55
2022-12-03T12:32:15.277Z,15.48
2022-12-03T12:34:50.448Z,18.08
2022-12-03T12:37:47.337Z,17.77
2022-12-03T12:40:17.777Z,18.10
2022-12-03T12:42:57.917Z,18.17
2022-12-03T12:45:30.290Z,16.88
2022-12-03T12:48:31.218Z,19.77
2022-12-03T12:51:12.880Z,18.50
2022-12-03T12:53:42.940Z,17.52
2022-12-03T12:56:32.143Z,19.50
2022-12-03T12:59:09.624Z,17.60
2022-12-03T13:01:37.323Z,19.02
2022-12-03T13:04:11.707Z,17.77
2022-12-03T13:06:38.715Z,17.85
2022-12-03T13:09:14.580Z,19.10
2022-12-03T13:11:45.692Z,20.15
2022-12-03T13:14:17.456Z,20.25
2022-12-03T13:16:44.620Z,17.73
2022-12-03T13:19:24.759Z,18.80
2022-12-03T13:21:53.932Z,20.05
2022-12-03T13:24:37.495Z,18.85
2022-12-03T13:27:16.313Z,20.75
2022-12-03T13:29:43.562Z,19.30
2022-12-03T13:32:20.633Z,19.25
2022-12-03T13:34:48.255Z,19.52
2022-12-03T13:37:19.938Z,19.60
2022-12-03T13:39:51.143Z,19.17
2022-12-03T13:42:45.218Z,16.73
2022-12-03T13:45:14.969Z,18.25
2022-12-03T13:47:46.550Z,18.27
2022-12-03T13:50:38.880Z,19.60
2022-12-03T13:53:11.502Z,17.42
2022-12-03T13:55:46.470Z,19.25
2022-12-03T13:58:13.506Z,18.45
2022-12-03T14:00:40.104Z,18.33
2022-12-03T14:03:06.940Z,18.75
2022-12-03T14:05:33.598Z,17.23
2022-12-03T14:08:02.297Z,18.02
2022-12-03T14:10:29.735Z,17.10
2022-12-03T14:12:56.560Z,18.63
2022-12-03T14:15:23.409Z,17.85
2022-12-03T14:17:49.904Z,18.40
2022-12-03T14:20:16.521Z,18.77
2022-12-03T14:22:43.212Z,19.30
2022-12-03T14:25:10.822Z,17.55
2022-12-03T14:27:37.816Z,17.23
2022-12-03T14:30:05.260Z,17.25
2022-12-03T14:32:31.917Z,16.67
2022-12-03T14:34:58.565Z,16.90
2022-12-03T14:37:25.171Z,17.77
2022-12-03T14:39:52.283Z,18.00
2022-12-03T14:42:19.266Z,19.48
2022-12-03T14:44:48.351Z,18.00
2022-12-03T14:47:18.042Z,16.65
2022-12-03T14:52:12.846Z,12.20
2022-12-03T14:54:42.458Z,12.13
2022-12-03T14:57:11.546Z,12.68
2022-12-03T14:59:39.311Z,11.63
2022-12-03T15:02:05.958Z,13.18
2022-12-03T15:04:32.548Z,12.75
2022-12-03T15:06:59.392Z,12.43
2022-12-03T15:09:26.004Z,12.43
2022-12-03T15:11:52.624Z,13.48
2022-12-03T15:14:19.184Z,12.85
2022-12-03T15:16:45.888Z,12.07
2022-12-03T15:19:12.665Z,13.95
2022-12-03T15:21:39.245Z,11.88
2022-12-03T15:24:06.186Z,13.75
2022-12-03T15:26:32.785Z,14.50
2022-12-03T15:28:59.482Z,12.95
2022-12-03T15:31:26.083Z,13.95
2022-12-03T15:33:52.661Z,14.93
2022-12-03T15:36:19.267Z,16.88
2022-12-03T15:38:45.887Z,15.52
2022-12-03T15:41:21.701Z,17.23
2022-12-03T15:46:22.679Z,14.23
2022-12-03T15:48:49.697Z,18.15
2022-12-03T15:51:16.299Z,18.85
2022-12-03T15:53:43.089Z,16.50
2022-12-03T15:56:11.845Z,18.42
2022-12-03T15:58:39.640Z,18.30
2022-12-03T16:01:06.887Z,17.70
2022-12-03T16:03:33.491Z,17.15
2022-12-03T16:06:00.039Z,17.52
2022-12-03T16:08:27.036Z,17.08
2022-12-03T16:10:53.739Z,15.80
2022-12-03T16:13:20.254Z,17.45
2022-12-03T16:15:46.973Z,16.90
2022-12-03T16:18:13.560Z,18.67
2022-12-03T16:20:40.121Z,17.92
2022-12-03T16:23:11.362Z,16.00
2022-12-03T16:25:38.464Z,16.45
2022-12-03T16:28:05.152Z,16.50
2022-12-03T16:30:31.820Z,17.52
2022-12-03T16:32:58.451Z,19.13
2022-12-03T16:35:25.030Z,19.75
2022-12-03T16:37:51.665Z,24.02
2022-12-03T16:40:18.345Z,19.63
2022-12-03T16:42:44.905Z,19.10
2022-12-03T16:45:23.136Z,19.88
2022-12-03T16:47:50.307Z,19.42
2022-12-03T16:50:24.461Z,17.67
2022-12-03T16:52:56.211Z,17.70
2022-12-03T16:55:23.069Z,20.45
2022-12-03T16:57:51.576Z,18.13
2022-12-03T17:00:18.724Z,18.23
2022-12-03T17:02:45.476Z,19.08
2022-12-03T17:05:12.262Z,17.63
2022-12-03T17:07:39.231Z,20.70
2022-12-03T17:10:06.862Z,18.30
2022-12-03T17:13:01.127Z,19.02
2022-12-03T17:15:20.208Z,20.77
2022-12-03T17:17:46.812Z,18.88
2022-12-03T17:20:14.720Z,19.27
2022-12-03T17:22:41.686Z,18.85
2022-12-03T17:25:08.997Z,18.90
2022-12-03T17:27:37.026Z,19.17
2022-12-03T17:32:32.393Z,17.10
2022-12-03T17:34:58.970Z,18.35
2022-12-03T17:37:25.759Z,20.52
2022-12-03T17:39:52.794Z,21.00
2022-12-03T17:42:20.237Z,20.60
2022-12-03T17:44:46.998Z,22.23
2022-12-03T17:47:13.581Z,20.10
2022-12-03T17:49:40.283Z,21.33
2022-12-03T17:52:07.087Z,19.13
2022-12-03T17:54:55.091Z,19.55
2022-12-03T17:57:20.278Z,18.63
2022-12-03T17:59:46.945Z,18.13
2022-12-03T18:02:13.931Z,18.83
2022-12-03T18:04:40.509Z,20.50
2022-12-03T18:07:07.284Z,17.48
2022-12-03T18:09:33.819Z,19.23
2022-12-03T18:12:00.385Z,19.80
2022-12-03T18:14:26.999Z,20.20
2022-12-03T18:16:53.664Z,19.65
2022-12-03T18:19:22.068Z,18.73
2022-12-03T18:21:48.646Z,20.23
2022-12-03T18:24:15.352Z,18.50
2022-12-03T18:26:43.491Z,17.85
2022-12-03T18:29:10.028Z,19.85
2022-12-03T18:31:36.803Z,20.08
2022-12-03T18:34:03.536Z,18.13
2022-12-03T18:36:35.128Z,17.52
2022-12-03T18:39:02.835Z,20.13
2022-12-03T18:41:29.666Z,19.73
2022-12-03T18:43:56.299Z,17.27
2022-12-03T18:46:51.871Z,18.08
2022-12-03T18:49:10.820Z,15.88
2022-12-03T18:51:37.764Z,17.25
2022-12-03T18:54:04.512Z,19.10
2022-12-03T18:56:31.059Z,19.15
2022-12-03T18:58:57.584Z,17.73
2022-12-03T19:01:25.605Z,18.50
2022-12-03T19:03:53.742Z,18.90
2022-12-03T19:06:21.402Z,17.30
2022-12-03T19:08:49.528Z,17.67
2022-12-03T19:11:16.166Z,16.00
2022-12-03T19:13:43.022Z,16.10
2022-12-03T19:16:10.788Z,18.25
2022-12-03T19:18:37.850Z,16.55
2022-12-03T19:21:12.371Z,17.38
2022-12-03T19:23:39.541Z,17.95
2022-12-03T19:26:08.256Z,19.55
2022-12-03T19:28:35.225Z,17.90
2022-12-03T19:31:14.090Z,17.90
2022-12-03T19:33:42.684Z,18.15
2022-12-03T19:36:28.242Z,18.42
2022-12-03T19:38:57.599Z,19.17
2022-12-03T19:41:27.434Z,17.33
2022-12-03T19:43:55.498Z,18.05
2022-12-03T19:46:24.488Z,19.55
2022-12-03T19:48:51.447Z,17.70
2022-12-03T19:51:34.247Z,18.65
2022-12-03T19:54:09.396Z,19.05
2022-12-03T19:56:36.093Z,18.92
2022-12-03T19:59:05.769Z,19.27
2022-12-03T20:01:35.345Z,19.05
2022-12-03T20:06:33.915Z,17.20
2022-12-03T20:09:12.058Z,17.25
2022-12-03T20:11:41.591Z,18.23
2022-12-03T20:14:16.680Z,19.10
2022-12-03T20:16:44.932Z,17.90
2022-12-03T20:19:13.773Z,19.15
2022-12-03T20:21:41.165Z,16.85
2022-12-03T20:24:10.414Z,16.75
2022-12-03T20:26:37.001Z,17.95
2022-12-03T20:29:06.544Z,16.08
2022-12-03T20:31:33.523Z,17.77
2022-12-03T20:34:02.490Z,17.40
2022-12-03T20:36:30.913Z,19.00
2022-12-03T20:38:59.991Z,18.02
2022-12-03T20:41:27.011Z,17.20
2022-12-03T20:43:53.951Z,18.17
2022-12-03T20:46:25.546Z,19.65
2022-12-03T20:48:53.992Z,15.73
2022-12-03T20:51:23.119Z,18.88
2022-12-03T20:53:50.269Z,16.70
2022-12-03T20:56:20.713Z,18.90
2022-12-03T20:58:48.901Z,21.52
2022-12-03T21:01:16.732Z,20.00
2022-12-03T21:03:44.861Z,20.63
2022-12-03T21:06:12.845Z,21.50
2022-12-03T21:08:42.431Z,19.35
2022-12-03T21:11:14.206Z,22.45
2022-12-03T21:13:44.165Z,18.00
2022-12-03T21:16:39.406Z,19.13
2022-12-03T21:19:09.824Z,16.80
2022-12-03T21:21:36.492Z,20.30
2022-12-03T21:24:03.168Z,20.02
2022-12-03T21:26:29.777Z,19.27
2022-12-03T21:28:56.440Z,19.00
2022-12-03T21:31:26.140Z,18.42
2022-12-03T21:33:57.565Z,22.45
2022-12-03T21:36:25.469Z,18.20
2022-12-03T21:38:52.352Z,24.83
2022-12-03T21:41:19.247Z,21.60
2022-12-03T21:43:45.937Z,22.42
2022-12-03T21:47:09.314Z,22.20
2022-12-03T21:49:04.641Z,25.83
2022-12-03T21:51:31.349Z,22.42
2022-12-03T21:53:57.944Z,20.45
2022-12-03T21:56:24.749Z,21.98
2022-12-03T21:58:51.527Z,21.30
2022-12-03T22:01:21.388Z,24.05
2022-12-03T22:03:48.293Z,28.73
2022-12-03T22:06:15.198Z,35.03
2022-12-03T22:08:42.136Z,20.85
2022-12-03T22:11:17.655Z,19.10
2022-12-03T22:13:44.653Z,20.02
2022-12-03T22:16:14.765Z,21.60
2022-12-03T22:18:41.533Z,20.90
2022-12-03T22:21:10.682Z,21.48
2022-12-03T22:23:37.490Z,22.70
2022-12-03T22:26:07.118Z,22.05
2022-12-03T22:28:34.534Z,23.13
2022-12-03T22:31:06.658Z,22.98
2022-12-03T22:33:33.525Z,20.98
2022-12-03T22:36:04.823Z,23.90
2022-12-03T22:38:32.634Z,20.40
2022-12-03T22:40:59.585Z,22.38
2022-12-03T22:43:26.382Z,23.65
2022-12-03T22:45:54.773Z,22.08
2022-12-03T22:48:22.461Z,22.30
2022-12-03T22:50:50.918Z,23.73
2022-12-03T22:53:18.592Z,22.60
2022-12-03T22:55:45.541Z,21.08
2022-12-03T22:58:15.248Z,23.88
2022-12-03T23:00:42.083Z,23.45
2022-12-03T23:03:09.072Z,22.17
2022-12-03T23:05:38.706Z,23.10
2022-12-03T23:10:40.978Z,20.90
2022-12-03T23:13:09.642Z,23.63
2022-12-03T23:15:43.918Z,23.27
2022-12-03T23:18:10.478Z,25.23
2022-12-03T23:20:43.054Z,21.98
2022-12-03T23:23:09.880Z,24.40
2022-12-03T23:25:37.317Z,20.48
2022-12-03T23:28:08.817Z,21.80
2022-12-03T23:30:37.608Z,22.02
2022-12-03T23:33:08.585Z,21.45
2022-12-03T23:35:35.261Z,22.60
2022-12-03T23:38:01.811Z,21.60
2022-12-03T23:40:28.409Z,22.13
2022-12-03T23:42:55.116Z,23.27
2022-12-03T23:45:21.847Z,23.50
2022-12-03T23:47:49.748Z,21.65
2022-12-03T23:50:17.904Z,23.48
2022-12-03T23:52:44.462Z,21.48
2022-12-03T23:55:11.031Z,21.95
2022-12-03T23:57:37.588Z,22.55
